sensor_id;sensor_type;location;lat;lon;timestamp;P1;durP1;ratioP1;P2;durP2;ratioP2
3405;SDS011;10008;48.682;9.016;2022-12-07T00:01:36;19.87;;;10.97;;
3405;SDS011;10008;48.682;9.016;2022-12-07T00:04:04;17.60;;;9.30;;
3405;SDS011;10008;48.682;9.016;2022-12-07T00:06:32;16.90;;;9.80;;
3405;SDS011;10008;48.682;9.016;2022-12-07T00:08:58;17.63;;;9.70;;
3405;SDS011;10008;48.682;9.016;2022-12-07T00:11:24;15.80;;;9.87;;
3405;SDS011;10008;48.682;9.016;2022-12-07T00:13:51;18.20;;;9.57;;
3405;SDS011;10008;48.682;9.016;2022-12-07T00:16:19;17.90;;;10.43;;
3405;SDS011;10008;48.682;9.016;2022-12-07T00:18:46;15.77;;;9.90;;
3405;SDS011;10008;48.682;9.016;2022-12-07T00:21:13;16.00;;;10.27;;
3405;SDS011;10008;48.682;9.016;2022-12-07T00:23:41;17.33;;;10.70;;
3405;SDS011;10008;48.682;9.016;2022-12-07T00:26:11;19.47;;;10.60;;
3405;SDS011;10008;48.682;9.016;2022-12-07T00:28:38;16.73;;;10.20;;
3405;SDS011;10008;48.682;9.016;2022-12-07T00:31:09;16.57;;;9.70;;
3405;SDS011;10008;48.682;9.016;2022-12-07T00:33:36;15.97;;;10.03;;
3405;SDS011;10008;48.682;9.016;2022-12-07T00:36:04;17.90;;;9.97;;
3405;SDS011;10008;48.682;9.016;2022-12-07T00:38:33;13.80;;;9.07;;
3405;SDS011;10008;48.682;9.016;2022-12-07T00:41:01;16.70;;;10.30;;
3405;SDS011;10008;48.682;9.016;2022-12-07T00:43:28;16.33;;;9.90;;
3405;SDS011;10008;48.682;9.016;2022-12-07T00:45:54;16.20;;;9.77;;
3405;SDS011;10008;48.682;9.016;2022-12-07T00:48:20;15.53;;;9.40;;
3405;SDS011;10008;48.682;9.016;2022-12-07T00:50:47;16.77;;;10.27;;
3405;SDS011;10008;48.682;9.016;2022-12-07T00:53:13;17.90;;;10.70;;
3405;SDS011;10008;48.682;9.016;2022-12-07T00:55:39;18.20;;;10.07;;
3405;SDS011;10008;48.682;9.016;2022-12-07T00:58:05;18.83;;;10.57;;
3405;SDS011;10008;48.682;9.016;2022-12-07T01:00:31;18.53;;;10.30;;
3405;SDS011;10008;48.682;9.016;2022-12-07T01:02:57;16.70;;;10.40;;
3405;SDS011;10008;48.682;9.016;2022-12-07T01:05:23;17.83;;;12.00;;
3405;SDS011;10008;48.682;9.016;2022-12-07T01:07:49;17.30;;;11.43;;
3405;SDS011;10008;48.682;9.016;2022-12-07T01:10:14;18.87;;;11.80;;
3405;SDS011;10008;48.682;9.016;2022-12-07T01:12:40;17.30;;;10.83;;
3405;SDS011;10008;48.682;9.016;2022-12-07T01:15:07;17.87;;;11.20;;
3405;SDS011;10008;48.682;9.016;2022-12-07T01:17:33;16.60;;;11.20;;
3405;SDS011;10008;48.682;9.016;2022-12-07T01:19:59;20.50;;;12.30;;
3405;SDS011;10008;48.682;9.016;2022-12-07T01:22:25;17.30;;;11.63;;
3405;SDS011;10008;48.682;9.016;2022-12-07T01:24:51;19.67;;;12.13;;
3405;SDS011;10008;48.682;9.016;2022-12-07T01:27:17;16.70;;;11.43;;
3405;SDS011;10008;48.682;9.016;2022-12-07T01:29:42;19.27;;;11.77;;
3405;SDS011;10008;48.682;9.016;2022-12-07T01:32:08;16.53;;;11.30;;
3405;SDS011;10008;48.682;9.016;2022-12-07T01:34:35;18.63;;;12.30;;
3405;SDS011;10008;48.682;9.016;2022-12-07T01:37:01;17.67;;;11.67;;
3405;SDS011;10008;48.682;9.016;2022-12-07T01:39:26;19.80;;;11.83;;
3405;SDS011;10008;48.682;9.016;2022-12-07T01:41:52;17.47;;;11.37;;
3405;SDS011;10008;48.682;9.016;2022-12-07T01:44:20;17.80;;;11.80;;
3405;SDS011;10008;48.682;9.016;2022-12-07T01:46:49;19.30;;;12.60;;
3405;SDS011;10008;48.682;9.016;2022-12-07T01:52:23;20.00;;;12.47;;
3405;SDS011;10008;48.682;9.016;2022-12-07T01:54:56;21.40;;;13.37;;
3405;SDS011;10008;48.682;9.016;2022-12-07T01:57:26;19.53;;;12.97;;
3405;SDS011;10008;48.682;9.016;2022-12-07T01:59:52;18.77;;;12.27;;
3405;SDS011;10008;48.682;9.016;2022-12-07T02:02:30;17.87;;;11.63;;
3405;SDS011;10008;48.682;9.016;2022-12-07T02:05:06;20.20;;;12.00;;
3405;SDS011;10008;48.682;9.016;2022-12-07T02:07:34;20.70;;;12.80;;
3405;SDS011;10008;48.682;9.016;2022-12-07T02:10:21;19.77;;;12.57;;
3405;SDS011;10008;48.682;9.016;2022-12-07T02:12:50;16.33;;;10.70;;
3405;SDS011;10008;48.682;9.016;2022-12-07T02:16:32;19.60;;;12.13;;
3405;SDS011;10008;48.682;9.016;2022-12-07T02:21:33;17.73;;;11.20;;
3405;SDS011;10008;48.682;9.016;2022-12-07T02:29:58;18.23;;;11.47;;
3405;SDS011;10008;48.682;9.016;2022-12-07T02:32:55;16.83;;;10.90;;
3405;SDS011;10008;48.682;9.016;2022-12-07T02:35:30;17.90;;;10.93;;
3405;SDS011;10008;48.682;9.016;2022-12-07T02:38:14;15.40;;;9.67;;
3405;SDS011;10008;48.682;9.016;2022-12-07T02:40:48;16.10;;;10.83;;
3405;SDS011;10008;48.682;9.016;2022-12-07T02:43:27;18.37;;;11.33;;
3405;SDS011;10008;48.682;9.016;2022-12-07T02:45:58;15.23;;;10.63;;
3405;SDS011;10008;48.682;9.016;2022-12-07T02:48:33;15.27;;;10.60;;
3405;SDS011;10008;48.682;9.016;2022-12-07T02:51:00;14.10;;;8.77;;
3405;SDS011;10008;48.682;9.016;2022-12-07T02:53:33;15.67;;;9.63;;
3405;SDS011;10008;48.682;9.016;2022-12-07T02:56:25;14.80;;;9.90;;
3405;SDS011;10008;48.682;9.016;2022-12-07T03:07:37;16.57;;;9.43;;
3405;SDS011;10008;48.682;9.016;2022-12-07T03:10:14;17.10;;;10.90;;
3405;SDS011;10008;48.682;9.016;2022-12-07T03:12:57;16.30;;;10.40;;
3405;SDS011;10008;48.682;9.016;2022-12-07T03:15:54;17.87;;;10.47;;
3405;SDS011;10008;48.682;9.016;2022-12-07T03:18:22;17.80;;;11.50;;
3405;SDS011;10008;48.682;9.016;2022-12-07T03:20:51;17.03;;;11.07;;
3405;SDS011;10008;48.682;9.016;2022-12-07T03:23:21;16.03;;;10.63;;
3405;SDS011;10008;48.682;9.016;2022-12-07T03:25:50;17.50;;;10.77;;
3405;SDS011;10008;48.682;9.016;2022-12-07T03:28:26;16.80;;;10.90;;
3405;SDS011;10008;48.682;9.016;2022-12-07T03:31:07;16.53;;;10.50;;
3405;SDS011;10008;48.682;9.016;2022-12-07T03:34:05;18.27;;;10.70;;
3405;SDS011;10008;48.682;9.016;2022-12-07T03:36:49;18.10;;;11.53;;
3405;SDS011;10008;48.682;9.016;2022-12-07T03:39:24;18.83;;;10.90;;
3405;SDS011;10008;48.682;9.016;2022-12-07T03:41:59;21.20;;;11.73;;
3405;SDS011;10008;48.682;9.016;2022-12-07T03:44:26;18.33;;;11.27;;
3405;SDS011;10008;48.682;9.016;2022-12-07T03:47:01;22.03;;;12.40;;
3405;SDS011;10008;48.682;9.016;2022-12-07T03:49:31;17.13;;;11.17;;
3405;SDS011;10008;48.682;9.016;2022-12-07T03:57:22;18.43;;;11.13;;
3405;SDS011;10008;48.682;9.016;2022-12-07T03:59:50;19.73;;;12.43;;
3405;SDS011;10008;48.682;9.016;2022-12-07T04:02:18;19.83;;;11.97;;
3405;SDS011;10008;48.682;9.016;2022-12-07T04:04:45;20.80;;;12.77;;
3405;SDS011;10008;48.682;9.016;2022-12-07T04:07:11;19.47;;;12.00;;
3405;SDS011;10008;48.682;9.016;2022-12-07T04:09:38;21.80;;;13.13;;
3405;SDS011;10008;48.682;9.016;2022-12-07T04:12:04;17.20;;;11.23;;
3405;SDS011;10008;48.682;9.016;2022-12-07T04:14:30;20.27;;;12.67;;
3405;SDS011;10008;48.682;9.016;2022-12-07T04:16:56;18.07;;;11.23;;
3405;SDS011;10008;48.682;9.016;2022-12-07T04:19:24;19.70;;;11.93;;
3405;SDS011;10008;48.682;9.016;2022-12-07T04:21:52;22.20;;;13.00;;
3405;SDS011;10008;48.682;9.016;2022-12-07T04:24:18;20.77;;;12.60;;
3405;SDS011;10008;48.682;9.016;2022-12-07T04:26:44;21.60;;;12.90;;
3405;SDS011;10008;48.682;9.016;2022-12-07T04:29:10;19.87;;;12.67;;
3405;SDS011;10008;48.682;9.016;2022-12-07T04:31:36;20.50;;;12.43;;
3405;SDS011;10008;48.682;9.016;2022-12-07T04:34:02;18.17;;;11.13;;
3405;SDS011;10008;48.682;9.016;2022-12-07T04:36:28;21.63;;;10.57;;
3405;SDS011;10008;48.682;9.016;2022-12-07T04:38:54;20.10;;;10.77;;
3405;SDS011;10008;48.682;9.016;2022-12-07T04:41:20;20.13;;;12.00;;
3405;SDS011;10008;48.682;9.016;2022-12-07T04:43:55;19.60;;;11.30;;
3405;SDS011;10008;48.682;9.016;2022-12-07T04:46:23;17.53;;;10.87;;
3405;SDS011;10008;48.682;9.016;2022-12-07T04:48:50;18.83;;;10.63;;
3405;SDS011;10008;48.682;9.016;2022-12-07T04:51:18;22.67;;;11.40;;
3405;SDS011;10008;48.682;9.016;2022-12-07T04:53:46;18.67;;;11.30;;
3405;SDS011;10008;48.682;9.016;2022-12-07T04:56:13;17.50;;;10.70;;
3405;SDS011;10008;48.682;9.016;2022-12-07T04:58:40;16.00;;;10.23;;
3405;SDS011;10008;48.682;9.016;2022-12-07T05:01:07;16.53;;;10.80;;
3405;SDS011;10008;48.682;9.016;2022-12-07T05:03:32;17.50;;;10.70;;
3405;SDS011;10008;48.682;9.016;2022-12-07T05:05:58;17.80;;;10.13;;
3405;SDS011;10008;48.682;9.016;2022-12-07T05:08:24;22.40;;;14.17;;
3405;SDS011;10008;48.682;9.016;2022-12-07T05:10:49;19.27;;;12.20;;
3405;SDS011;10008;48.682;9.016;2022-12-07T05:13:15;18.77;;;11.97;;
3405;SDS011;10008;48.682;9.016;2022-12-07T05:15:41;19.40;;;11.60;;
3405;SDS011;10008;48.682;9.016;2022-12-07T05:18:10;17.60;;;11.10;;
3405;SDS011;10008;48.682;9.016;2022-12-07T05:20:38;17.17;;;10.23;;
3405;SDS011;10008;48.682;9.016;2022-12-07T05:23:04;17.27;;;10.50;;
3405;SDS011;10008;48.682;9.016;2022-12-07T05:25:30;18.93;;;10.93;;
3405;SDS011;10008;48.682;9.016;2022-12-07T05:27:56;16.53;;;10.30;;
3405;SDS011;10008;48.682;9.016;2022-12-07T05:30:22;17.80;;;10.60;;
3405;SDS011;10008;48.682;9.016;2022-12-07T05:32:49;16.83;;;10.37;;
3405;SDS011;10008;48.682;9.016;2022-12-07T05:35:15;14.87;;;9.23;;
3405;SDS011;10008;48.682;9.016;2022-12-07T05:37:41;18.10;;;10.13;;
3405;SDS011;10008;48.682;9.016;2022-12-07T05:40:07;16.60;;;10.60;;
3405;SDS011;10008;48.682;9.016;2022-12-07T05:42:34;16.77;;;10.40;;
3405;SDS011;10008;48.682;9.016;2022-12-07T05:45:00;19.37;;;10.57;;
3405;SDS011;10008;48.682;9.016;2022-12-07T05:47:26;18.27;;;10.63;;
3405;SDS011;10008;48.682;9.016;2022-12-07T05:49:52;18.47;;;9.87;;
3405;SDS011;10008;48.682;9.016;2022-12-07T05:52:17;15.47;;;9.20;;
3405;SDS011;10008;48.682;9.016;2022-12-07T05:54:43;15.07;;;9.00;;
3405;SDS011;10008;48.682;9.016;2022-12-07T05:57:09;16.40;;;8.90;;
3405;SDS011;10008;48.682;9.016;2022-12-07T05:59:35;15.60;;;8.70;;
3405;SDS011;10008;48.682;9.016;2022-12-07T06:02:01;13.83;;;8.80;;
3405;SDS011;10008;48.682;9.016;2022-12-07T06:04:30;15.67;;;9.17;;
3405;SDS011;10008;48.682;9.016;2022-12-07T06:06:58;17.57;;;10.27;;
3405;SDS011;10008;48.682;9.016;2022-12-07T06:09:24;17.53;;;9.80;;
3405;SDS011;10008;48.682;9.016;2022-12-07T06:11:52;19.17;;;10.73;;
3405;SDS011;10008;48.682;9.016;2022-12-07T06:14:37;18.80;;;10.87;;
3405;SDS011;10008;48.682;9.016;2022-12-07T06:17:02;19.00;;;11.07;;
3405;SDS011;10008;48.682;9.016;2022-12-07T06:19:28;19.97;;;11.77;;
3405;SDS011;10008;48.682;9.016;2022-12-07T06:21:54;20.30;;;12.20;;
3405;SDS011;10008;48.682;9.016;2022-12-07T06:24:20;20.00;;;11.63;;
3405;SDS011;10008;48.682;9.016;2022-12-07T06:26:46;22.10;;;12.10;;
3405;SDS011;10008;48.682;9.016;2022-12-07T06:29:12;20.40;;;11.70;;
3405;SDS011;10008;48.682;9.016;2022-12-07T06:31:38;20.90;;;12.60;;
3405;SDS011;10008;48.682;9.016;2022-12-07T06:34:14;23.00;;;12.97;;
3405;SDS011;10008;48.682;9.016;2022-12-07T06:36:42;22.43;;;13.03;;
3405;SDS011;10008;48.682;9.016;2022-12-07T06:39:08;24.23;;;13.50;;
3405;SDS011;10008;48.682;9.016;2022-12-07T06:41:35;20.93;;;12.33;;
3405;SDS011;10008;48.682;9.016;2022-12-07T06:44:02;21.33;;;12.03;;
3405;SDS011;10008;48.682;9.016;2022-12-07T06:46:28;19.90;;;11.17;;
3405;SDS011;10008;48.682;9.016;2022-12-07T06:48:54;20.03;;;11.83;;
3405;SDS011;10008;48.682;9.016;2022-12-07T06:51:20;23.87;;;13.27;;
3405;SDS011;10008;48.682;9.016;2022-12-07T06:53:46;25.63;;;13.00;;
3405;SDS011;10008;48.682;9.016;2022-12-07T06:56:11;22.10;;;12.87;;
3405;SDS011;10008;48.682;9.016;2022-12-07T06:58:37;22.73;;;12.97;;
3405;SDS011;10008;48.682;9.016;2022-12-07T07:01:08;22.13;;;12.50;;
3405;SDS011;10008;48.682;9.016;2022-12-07T07:03:38;20.13;;;12.40;;
3405;SDS011;10008;48.682;9.016;2022-12-07T07:06:04;22.57;;;12.23;;
3405;SDS011;10008;48.682;9.016;2022-12-07T07:08:31;24.20;;;13.50;;
3405;SDS011;10008;48.682;9.016;2022-12-07T07:10:57;24.57;;;13.50;;
3405;SDS011;10008;48.682;9.016;2022-12-07T07:13:22;24.87;;;13.90;;
3405;SDS011;10008;48.682;9.016;2022-12-07T07:15:48;23.07;;;13.10;;
3405;SDS011;10008;48.682;9.016;2022-12-07T07:18:14;22.70;;;13.40;;
3405;SDS011;10008;48.682;9.016;2022-12-07T07:20:40;20.93;;;11.77;;
3405;SDS011;10008;48.682;9.016;2022-12-07T07:23:05;22.30;;;12.70;;
3405;SDS011;10008;48.682;9.016;2022-12-07T07:25:32;17.87;;;11.73;;
3405;SDS011;10008;48.682;9.016;2022-12-07T07:27:58;20.60;;;11.23;;
3405;SDS011;10008;48.682;9.016;2022-12-07T07:30:25;18.07;;;11.13;;
3405;SDS011;10008;48.682;9.016;2022-12-07T07:32:51;19.70;;;11.43;;
3405;SDS011;10008;48.682;9.016;2022-12-07T07:35:21;20.30;;;10.60;;
3405;SDS011;10008;48.682;9.016;2022-12-07T07:37:46;19.73;;;11.10;;
3405;SDS011;10008;48.682;9.016;2022-12-07T07:40:12;18.33;;;10.57;;
3405;SDS011;10008;48.682;9.016;2022-12-07T07:42:38;17.70;;;10.03;;
3405;SDS011;10008;48.682;9.016;2022-12-07T07:45:04;17.57;;;10.50;;
3405;SDS011;10008;48.682;9.016;2022-12-07T07:47:30;22.53;;;10.77;;
3405;SDS011;10008;48.682;9.016;2022-12-07T07:49:56;18.03;;;10.10;;
3405;SDS011;10008;48.682;9.016;2022-12-07T07:52:22;16.40;;;9.83;;
3405;SDS011;10008;48.682;9.016;2022-12-07T07:54:48;13.63;;;8.27;;
3405;SDS011;10008;48.682;9.016;2022-12-07T07:57:13;14.30;;;8.53;;
3405;SDS011;10008;48.682;9.016;2022-12-07T07:59:40;15.40;;;8.03;;
3405;SDS011;10008;48.682;9.016;2022-12-07T08:02:07;16.13;;;8.70;;
3405;SDS011;10008;48.682;9.016;2022-12-07T08:04:39;15.53;;;8.63;;
3405;SDS011;10008;48.682;9.016;2022-12-07T08:07:05;14.10;;;9.13;;
3405;SDS011;10008;48.682;9.016;2022-12-07T08:09:30;17.17;;;9.43;;
3405;SDS011;10008;48.682;9.016;2022-12-07T08:11:57;12.50;;;7.67;;
3405;SDS011;10008;48.682;9.016;2022-12-07T08:14:23;13.30;;;7.97;;
3405;SDS011;10008;48.682;9.016;2022-12-07T08:16:49;13.63;;;7.97;;
3405;SDS011;10008;48.682;9.016;2022-12-07T08:19:15;12.90;;;7.10;;
3405;SDS011;10008;48.682;9.016;2022-12-07T08:21:41;14.13;;;8.00;;
3405;SDS011;10008;48.682;9.016;2022-12-07T08:24:07;15.67;;;8.63;;
3405;SDS011;10008;48.682;9.016;2022-12-07T08:26:33;13.23;;;7.23;;
3405;SDS011;10008;48.682;9.016;2022-12-07T08:28:59;12.27;;;7.27;;
3405;SDS011;10008;48.682;9.016;2022-12-07T08:31:25;10.57;;;6.30;;
3405;SDS011;10008;48.682;9.016;2022-12-07T08:33:52;10.17;;;6.40;;
3405;SDS011;10008;48.682;9.016;2022-12-07T08:36:18;12.23;;;7.17;;
3405;SDS011;10008;48.682;9.016;2022-12-07T08:38:44;12.50;;;6.50;;
3405;SDS011;10008;48.682;9.016;2022-12-07T08:41:10;14.03;;;7.00;;
3405;SDS011;10008;48.682;9.016;2022-12-07T08:43:36;10.77;;;6.60;;
3405;SDS011;10008;48.682;9.016;2022-12-07T08:49:04;13.53;;;6.80;;
3405;SDS011;10008;48.682;9.016;2022-12-07T08:51:35;13.13;;;7.70;;
3405;SDS011;10008;48.682;9.016;2022-12-07T08:54:03;12.83;;;7.20;;
3405;SDS011;10008;48.682;9.016;2022-12-07T08:56:32;9.90;;;6.10;;
3405;SDS011;10008;48.682;9.016;2022-12-07T08:58:58;11.40;;;6.60;;
3405;SDS011;10008;48.682;9.016;2022-12-07T09:01:25;10.23;;;6.77;;
3405;SDS011;10008;48.682;9.016;2022-12-07T09:03:50;9.70;;;5.73;;
3405;SDS011;10008;48.682;9.016;2022-12-07T09:06:16;11.43;;;6.40;;
3405;SDS011;10008;48.682;9.016;2022-12-07T09:08:43;11.53;;;6.60;;
3405;SDS011;10008;48.682;9.016;2022-12-07T09:11:12;10.63;;;6.03;;
3405;SDS011;10008;48.682;9.016;2022-12-07T09:13:38;11.77;;;6.63;;
3405;SDS011;10008;48.682;9.016;2022-12-07T09:16:03;10.87;;;6.50;;
3405;SDS011;10008;48.682;9.016;2022-12-07T09:18:30;13.77;;;8.70;;
3405;SDS011;10008;48.682;9.016;2022-12-07T09:20:56;11.20;;;6.67;;
3405;SDS011;10008;48.682;9.016;2022-12-07T09:23:21;10.20;;;6.40;;
3405;SDS011;10008;48.682;9.016;2022-12-07T09:25:47;11.63;;;6.53;;
3405;SDS011;10008;48.682;9.016;2022-12-07T09:28:13;10.67;;;6.47;;
3405;SDS011;10008;48.682;9.016;2022-12-07T09:30:44;8.90;;;5.37;;
3405;SDS011;10008;48.682;9.016;2022-12-07T09:33:12;12.63;;;7.00;;
3405;SDS011;10008;48.682;9.016;2022-12-07T09:35:37;13.60;;;6.70;;
3405;SDS011;10008;48.682;9.016;2022-12-07T09:38:03;13.27;;;8.00;;
3405;SDS011;10008;48.682;9.016;2022-12-07T09:40:29;10.33;;;5.93;;
3405;SDS011;10008;48.682;9.016;2022-12-07T09:42:55;10.17;;;6.00;;
3405;SDS011;10008;48.682;9.016;2022-12-07T09:45:31;10.80;;;6.10;;
3405;SDS011;10008;48.682;9.016;2022-12-07T09:47:59;12.50;;;8.03;;
3405;SDS011;10008;48.682;9.016;2022-12-07T09:50:27;14.97;;;10.10;;
3405;SDS011;10008;48.682;9.016;2022-12-07T09:52:55;9.83;;;5.57;;
3405;SDS011;10008;48.682;9.016;2022-12-07T09:55:31;10.10;;;5.90;;
3405;SDS011;10008;48.682;9.016;2022-12-07T09:58:27;11.63;;;6.20;;
3405;SDS011;10008;48.682;9.016;2022-12-07T10:03:33;18.70;;;15.10;;
3405;SDS011;10008;48.682;9.016;2022-12-07T10:06:01;11.50;;;6.83;;
3405;SDS011;10008;48.682;9.016;2022-12-07T10:08:27;10.97;;;6.90;;
3405;SDS011;10008;48.682;9.016;2022-12-07T10:10:54;12.37;;;6.03;;
3405;SDS011;10008;48.682;9.016;2022-12-07T10:14:10;10.80;;;6.37;;
3405;SDS011;10008;48.682;9.016;2022-12-07T10:19:17;9.03;;;5.23;;
3405;SDS011;10008;48.682;9.016;2022-12-07T10:24:40;9.53;;;5.10;;
3405;SDS011;10008;48.682;9.016;2022-12-07T10:27:17;10.10;;;6.20;;
3405;SDS011;10008;48.682;9.016;2022-12-07T10:29:52;8.90;;;5.30;;
3405;SDS011;10008;48.682;9.016;2022-12-07T10:34:44;10.60;;;6.10;;
3405;SDS011;10008;48.682;9.016;2022-12-07T10:44:47;9.70;;;5.03;;
3405;SDS011;10008;48.682;9.016;2022-12-07T10:50:11;11.30;;;5.23;;
3405;SDS011;10008;48.682;9.016;2022-12-07T11:06:14;9.50;;;5.60;;
3405;SDS011;10008;48.682;9.016;2022-12-07T11:11:45;9.77;;;5.10;;
3405;SDS011;10008;48.682;9.016;2022-12-07T11:17:14;9.67;;;5.83;;
3405;SDS011;10008;48.682;9.016;2022-12-07T11:28:13;11.27;;;5.90;;
3405;SDS011;10008;48.682;9.016;2022-12-07T11:31:12;9.90;;;5.40;;
3405;SDS011;10008;48.682;9.016;2022-12-07T11:34:00;8.73;;;4.70;;
3405;SDS011;10008;48.682;9.016;2022-12-07T11:36:43;10.20;;;5.30;;
3405;SDS011;10008;48.682;9.016;2022-12-07T11:39:16;12.63;;;5.40;;
3405;SDS011;10008;48.682;9.016;2022-12-07T11:41:48;10.13;;;5.20;;
3405;SDS011;10008;48.682;9.016;2022-12-07T11:44:31;9.43;;;5.23;;
3405;SDS011;10008;48.682;9.016;2022-12-07T11:52:16;8.80;;;4.60;;
3405;SDS011;10008;48.682;9.016;2022-12-07T11:54:47;9.13;;;5.00;;
3405;SDS011;10008;48.682;9.016;2022-12-07T11:57:19;9.60;;;4.97;;
3405;SDS011;10008;48.682;9.016;2022-12-07T11:59:56;10.10;;;4.93;;
3405;SDS011;10008;48.682;9.016;2022-12-07T12:02:37;9.17;;;5.40;;
3405;SDS011;10008;48.682;9.016;2022-12-07T12:05:20;9.00;;;4.70;;
3405;SDS011;10008;48.682;9.016;2022-12-07T12:07:49;10.10;;;5.87;;
3405;SDS011;10008;48.682;9.016;2022-12-07T12:21:20;8.60;;;4.70;;
3405;SDS011;10008;48.682;9.016;2022-12-07T12:24:09;8.57;;;5.03;;
3405;SDS011;10008;48.682;9.016;2022-12-07T12:26:48;10.80;;;5.60;;
3405;SDS011;10008;48.682;9.016;2022-12-07T12:29:21;10.53;;;5.10;;
3405;SDS011;10008;48.682;9.016;2022-12-07T12:32:15;9.60;;;4.97;;
3405;SDS011;10008;48.682;9.016;2022-12-07T12:42:48;7.00;;;3.63;;
3405;SDS011;10008;48.682;9.016;2022-12-07T12:45:22;7.57;;;3.93;;
3405;SDS011;10008;48.682;9.016;2022-12-07T12:50:26;6.33;;;3.87;;
3405;SDS011;10008;48.682;9.016;2022-12-07T12:53:16;8.47;;;4.30;;
3405;SDS011;10008;48.682;9.016;2022-12-07T13:00:45;6.33;;;3.50;;
3405;SDS011;10008;48.682;9.016;2022-12-07T13:03:29;9.30;;;3.60;;
3405;SDS011;10008;48.682;9.016;2022-12-07T13:09:24;6.40;;;3.40;;
3405;SDS011;10008;48.682;9.016;2022-12-07T13:12:02;6.93;;;3.43;;
3405;SDS011;10008;48.682;9.016;2022-12-07T13:17:04;6.90;;;3.30;;
3405;SDS011;10008;48.682;9.016;2022-12-07T13:20:00;7.83;;;4.60;;
3405;SDS011;10008;48.682;9.016;2022-12-07T13:25:11;9.63;;;4.60;;
3405;SDS011;10008;48.682;9.016;2022-12-07T13:27:39;6.67;;;3.87;;
3405;SDS011;10008;48.682;9.016;2022-12-07T13:30:16;7.50;;;3.90;;
3405;SDS011;10008;48.682;9.016;2022-12-07T13:32:51;6.07;;;3.83;;
3405;SDS011;10008;48.682;9.016;2022-12-07T13:35:26;9.33;;;4.37;;
3405;SDS011;10008;48.682;9.016;2022-12-07T13:37:52;6.97;;;3.90;;
3405;SDS011;10008;48.682;9.016;2022-12-07T13:40:19;6.33;;;3.20;;
3405;SDS011;10008;48.682;9.016;2022-12-07T13:42:48;6.50;;;3.80;;
3405;SDS011;10008;48.682;9.016;2022-12-07T13:45:24;7.50;;;3.70;;
3405;SDS011;10008;48.682;9.016;2022-12-07T13:48:21;7.93;;;4.87;;
3405;SDS011;10008;48.682;9.016;2022-12-07T13:50:59;7.03;;;3.77;;
3405;SDS011;10008;48.682;9.016;2022-12-07T13:53:26;12.53;;;3.90;;
3405;SDS011;10008;48.682;9.016;2022-12-07T13:55:56;6.87;;;4.37;;
3405;SDS011;10008;48.682;9.016;2022-12-07T13:58:23;6.90;;;3.97;;
3405;SDS011;10008;48.682;9.016;2022-12-07T14:00:50;8.27;;;4.17;;
3405;SDS011;10008;48.682;9.016;2022-12-07T14:05:42;7.70;;;4.30;;
3405;SDS011;10008;48.682;9.016;2022-12-07T14:10:36;9.53;;;5.27;;
3405;SDS011;10008;48.682;9.016;2022-12-07T14:18:56;8.23;;;4.40;;
3405;SDS011;10008;48.682;9.016;2022-12-07T14:21:24;7.80;;;4.50;;
3405;SDS011;10008;48.682;9.016;2022-12-07T14:24:08;9.90;;;4.90;;
3405;SDS011;10008;48.682;9.016;2022-12-07T14:26:41;12.30;;;5.50;;
3405;SDS011;10008;48.682;9.016;2022-12-07T14:29:49;9.47;;;5.70;;
3405;SDS011;10008;48.682;9.016;2022-12-07T14:31:59;9.37;;;4.63;;
3405;SDS011;10008;48.682;9.016;2022-12-07T14:35:10;9.67;;;5.50;;
3405;SDS011;10008;48.682;9.016;2022-12-07T14:37:37;8.40;;;4.70;;
3405;SDS011;10008;48.682;9.016;2022-12-07T14:40:04;9.03;;;4.80;;
3405;SDS011;10008;48.682;9.016;2022-12-07T14:42:31;9.43;;;4.80;;
3405;SDS011;10008;48.682;9.016;2022-12-07T14:44:58;7.73;;;4.20;;
3405;SDS011;10008;48.682;9.016;2022-12-07T14:47:24;8.53;;;4.97;;
3405;SDS011;10008;48.682;9.016;2022-12-07T14:49:51;10.80;;;4.40;;
3405;SDS011;10008;48.682;9.016;2022-12-07T14:52:21;8.73;;;5.27;;
3405;SDS011;10008;48.682;9.016;2022-12-07T14:54:50;8.77;;;4.87;;
3405;SDS011;10008;48.682;9.016;2022-12-07T14:57:16;8.33;;;4.90;;
3405;SDS011;10008;48.682;9.016;2022-12-07T14:59:42;8.97;;;5.40;;
3405;SDS011;10008;48.682;9.016;2022-12-07T15:02:09;9.47;;;5.23;;
3405;SDS011;10008;48.682;9.016;2022-12-07T15:04:36;12.63;;;5.00;;
3405;SDS011;10008;48.682;9.016;2022-12-07T15:07:03;9.50;;;4.90;;
3405;SDS011;10008;48.682;9.016;2022-12-07T15:09:30;10.43;;;5.70;;
3405;SDS011;10008;48.682;9.016;2022-12-07T15:11:56;8.20;;;5.00;;
3405;SDS011;10008;48.682;9.016;2022-12-07T15:14:22;10.87;;;5.63;;
3405;SDS011;10008;48.682;9.016;2022-12-07T15:16:48;9.27;;;5.37;;
3405;SDS011;10008;48.682;9.016;2022-12-07T15:19:21;9.30;;;5.70;;
3405;SDS011;10008;48.682;9.016;2022-12-07T15:21:50;9.07;;;5.40;;
3405;SDS011;10008;48.682;9.016;2022-12-07T15:24:16;11.43;;;5.70;;
3405;SDS011;10008;48.682;9.016;2022-12-07T15:26:42;9.97;;;5.63;;
3405;SDS011;10008;48.682;9.016;2022-12-07T15:29:08;11.77;;;6.40;;
3405;SDS011;10008;48.682;9.016;2022-12-07T15:31:34;10.63;;;5.80;;
3405;SDS011;10008;48.682;9.016;2022-12-07T15:34:00;8.80;;;5.83;;
3405;SDS011;10008;48.682;9.016;2022-12-07T15:36:28;12.77;;;5.57;;
3405;SDS011;10008;48.682;9.016;2022-12-07T15:38:57;11.80;;;6.93;;
3405;SDS011;10008;48.682;9.016;2022-12-07T15:41:24;11.97;;;7.47;;
3405;SDS011;10008;48.682;9.016;2022-12-07T15:43:50;14.87;;;7.60;;
3405;SDS011;10008;48.682;9.016;2022-12-07T15:46:38;12.40;;;7.80;;
3405;SDS011;10008;48.682;9.016;2022-12-07T15:49:10;12.07;;;7.30;;
3405;SDS011;10008;48.682;9.016;2022-12-07T15:51:38;12.80;;;7.87;;
3405;SDS011;10008;48.682;9.016;2022-12-07T15:54:04;13.37;;;7.90;;
3405;SDS011;10008;48.682;9.016;2022-12-07T15:56:29;12.97;;;8.20;;
3405;SDS011;10008;48.682;9.016;2022-12-07T15:58:56;13.90;;;8.80;;
3405;SDS011;10008;48.682;9.016;2022-12-07T16:01:22;15.20;;;9.00;;
3405;SDS011;10008;48.682;9.016;2022-12-07T16:03:47;21.77;;;14.37;;
3405;SDS011;10008;48.682;9.016;2022-12-07T16:06:15;16.17;;;10.50;;
3405;SDS011;10008;48.682;9.016;2022-12-07T16:08:43;16.90;;;10.17;;
3405;SDS011;10008;48.682;9.016;2022-12-07T16:11:09;15.43;;;8.80;;
3405;SDS011;10008;48.682;9.016;2022-12-07T16:13:35;17.00;;;9.40;;
3405;SDS011;10008;48.682;9.016;2022-12-07T16:16:02;14.30;;;8.63;;
3405;SDS011;10008;48.682;9.016;2022-12-07T16:18:29;15.97;;;9.47;;
3405;SDS011;10008;48.682;9.016;2022-12-07T16:20:55;16.37;;;9.57;;
3405;SDS011;10008;48.682;9.016;2022-12-07T16:23:21;17.17;;;10.20;;
3405;SDS011;10008;48.682;9.016;2022-12-07T16:25:46;16.87;;;10.77;;
3405;SDS011;10008;48.682;9.016;2022-12-07T16:28:12;14.27;;;8.43;;
3405;SDS011;10008;48.682;9.016;2022-12-07T16:30:38;15.43;;;8.23;;
3405;SDS011;10008;48.682;9.016;2022-12-07T16:33:03;13.60;;;7.77;;
3405;SDS011;10008;48.682;9.016;2022-12-07T16:35:29;15.43;;;8.23;;
3405;SDS011;10008;48.682;9.016;2022-12-07T16:37:55;16.03;;;8.40;;
3405;SDS011;10008;48.682;9.016;2022-12-07T16:40:21;15.57;;;7.77;;
3405;SDS011;10008;48.682;9.016;2022-12-07T16:42:46;15.10;;;8.30;;
3405;SDS011;10008;48.682;9.016;2022-12-07T16:45:12;14.90;;;8.60;;
3405;SDS011;10008;48.682;9.016;2022-12-07T16:47:38;13.80;;;8.13;;
3405;SDS011;10008;48.682;9.016;2022-12-07T16:50:05;13.30;;;8.07;;
3405;SDS011;10008;48.682;9.016;2022-12-07T16:52:32;12.63;;;7.63;;
3405;SDS011;10008;48.682;9.016;2022-12-07T16:54:58;14.20;;;7.70;;
3405;SDS011;10008;48.682;9.016;2022-12-07T16:57:24;14.73;;;8.60;;
3405;SDS011;10008;48.682;9.016;2022-12-07T16:59:50;15.67;;;8.97;;
3405;SDS011;10008;48.682;9.016;2022-12-07T17:02:17;14.17;;;7.90;;
3405;SDS011;10008;48.682;9.016;2022-12-07T17:04:43;15.00;;;9.70;;
3405;SDS011;10008;48.682;9.016;2022-12-07T17:07:09;14.00;;;7.70;;
3405;SDS011;10008;48.682;9.016;2022-12-07T17:09:36;12.70;;;7.93;;